createdAt,value
2019-01-16T00:02:16.008Z,97347.05
2019-01-16T00:05:05.890Z,97344.51
2019-01-16T00:07:58.895Z,97338.27
2019-01-16T00:10:44.881Z,97340.52
2019-01-16T00:13:32.036Z,97346.58
2019-01-16T00:16:10.444Z,97349.92
2019-01-16T00:19:00.406Z,97350.91
2019-01-16T00:21:52.991Z,97350.12
2019-01-16T00:24:40.674Z,97340.20
2019-01-16T00:27:29.116Z,97340.19
2019-01-16T00:30:15.388Z,97342.61
2019-01-16T00:33:06.126Z,97337.52
2019-01-16T00:35:52.527Z,97328.71
2019-01-16T00:38:47.710Z,97326.02
2019-01-16T00:41:37.676Z,97323.14
2019-01-16T00:44:26.435Z,97316.41
2019-01-16T00:47:15.912Z,97315.59
2019-01-16T00:50:18.089Z,97309.81
2019-01-16T00:53:04.893Z,97299.55
2019-01-16T00:55:53.343Z,97306.77
2019-01-16T00:58:50.904Z,97305.44
2019-01-16T01:01:30.869Z,97302.86
2019-01-16T01:04:16.948Z,97297.26
2019-01-16T01:07:06.180Z,97296.58
2019-01-16T01:10:11.965Z,97299.30
2019-01-16T01:13:01.940Z,97293.72
2019-01-16T01:15:50.713Z,97290.52
2019-01-16T01:18:40.783Z,97292.57
2019-01-16T01:21:41.891Z,97287.92
2019-01-16T01:24:24.355Z,97291.98
2019-01-16T01:27:12.818Z,97295.72
2019-01-16T01:30:06.368Z,97295.58
2019-01-16T01:32:52.416Z,97292.97
2019-01-16T01:35:38.891Z,97292.17
2019-01-16T01:38:32.463Z,97296.45
2019-01-16T01:41:20.451Z,97297.27
2019-01-16T01:44:13.670Z,97293.41
2019-01-16T01:47:02.031Z,97286.06
2019-01-16T01:49:42.900Z,97286.44
2019-01-16T01:52:39.086Z,97282.31
2019-01-16T01:55:34.473Z,97281.23
2019-01-16T01:58:27.855Z,97275.02
2019-01-16T03:02:19.318Z,97227.94
2019-01-16T03:05:03.217Z,97235.13
2019-01-16T03:08:02.736Z,97229.67
2019-01-16T03:10:48.230Z,97219.56
2019-01-16T03:13:40.918Z,97216.22
2019-01-16T03:16:30.451Z,97208.86
2019-01-16T03:19:19.800Z,97199.05
2019-01-16T03:22:10.089Z,97201.52
2019-01-16T03:24:59.564Z,97201.76
2019-01-16T03:27:54.874Z,97199.58
2019-01-16T03:30:48.350Z,97195.22
2019-01-16T03:33:36.842Z,97192.14
2019-01-16T03:36:25.414Z,97189.66
2019-01-16T03:39:08.264Z,97193.98
2019-01-16T03:41:57.837Z,97197.49
2019-01-16T03:44:53.730Z,97199.70
2019-01-16T03:47:49.612Z,97187.45
2019-01-16T03:50:54.386Z,97177.30
2019-01-16T03:53:43.481Z,97171.11
2019-01-16T03:56:32.852Z,97167.25
2019-01-16T03:59:28.786Z,97160.93
2019-01-16T04:02:12.022Z,97150.16
2019-01-16T04:04:51.344Z,97145.28
2019-01-16T04:07:35.910Z,97142.32
2019-01-16T04:10:25.876Z,97144.78
2019-01-16T04:13:05.034Z,97149.05
2019-01-16T04:15:46.247Z,97147.67
2019-01-16T04:18:44.550Z,97144.44
2019-01-16T04:21:46.550Z,97141.89
2019-01-16T04:24:44.805Z,97155.65
2019-01-16T04:27:36.025Z,97160.73
2019-01-16T04:30:31.032Z,97162.61
2019-01-16T04:33:26.749Z,97158.59
2019-01-16T04:36:22.063Z,97158.77
2019-01-16T04:39:18.531Z,97149.14
2019-01-16T04:42:12.781Z,97143.33
2019-01-16T04:45:05.119Z,97143.16
2019-01-16T04:48:04.558Z,97141.35
2019-01-16T04:51:01.560Z,97127.05
2019-01-16T04:54:09.791Z,97116.94
2019-01-16T04:57:00.121Z,97107.16
2019-01-16T05:00:05.529Z,97106.45
2019-01-16T05:02:55.400Z,97095.84
2019-01-16T05:05:52.456Z,97103.47
2019-01-16T05:08:50.785Z,97101.64
2019-01-16T05:11:46.436Z,97099.63
2019-01-16T05:14:32.298Z,97096.72
2019-01-16T05:17:20.902Z,97101.53
2019-01-16T05:20:09.975Z,97103.70
2019-01-16T05:23:09.496Z,97102.83
2019-01-16T05:25:53.768Z,97104.43
2019-01-16T05:28:42.791Z,97103.14
2019-01-16T05:31:32.775Z,97106.42
2019-01-16T05:34:21.847Z,97098.78
2019-01-16T05:37:20.321Z,97097.37
2019-01-16T05:40:00.266Z,97099.88
2019-01-16T05:43:05.339Z,97100.58
2019-01-16T05:45:55.325Z,97098.09
2019-01-16T05:48:43.085Z,97092.13
2019-01-16T05:51:38.877Z,97086.97
2019-01-16T05:54:31.864Z,97074.45
2019-01-16T05:57:13.525Z,97075.28
2019-01-16T06:00:06.797Z,97079.78
2019-01-16T06:03:06.160Z,97076.13
2019-01-16T06:06:01.989Z,97076.53
2019-01-16T06:08:55.641Z,97078.92
2019-01-16T06:11:45.655Z,97073.62
2019-01-16T06:14:41.354Z,97063.06
2019-01-16T06:17:30.016Z,97055.42
2019-01-16T06:20:26.148Z,97053.59
2019-01-16T06:23:14.018Z,97053.22
2019-01-16T06:26:09.809Z,97054.41
2019-01-16T06:28:54.000Z,97051.23
2019-01-16T06:31:52.667Z,97047.61
2019-01-16T06:34:44.357Z,97044.66
2019-01-16T06:37:38.079Z,97042.22
2019-01-16T06:40:25.562Z,97044.14
2019-01-16T06:43:15.153Z,97043.08
2019-01-16T06:46:11.118Z,97032.79
2019-01-16T06:48:59.243Z,97039.41
2019-01-16T06:51:48.675Z,97031.11
2019-01-16T06:54:32.333Z,97037.95
2019-01-16T06:57:20.551Z,97035.48
2019-01-16T07:00:07.571Z,97041.61
2019-01-16T07:03:06.938Z,97040.00
2019-01-16T07:05:59.258Z,97040.15
2019-01-16T07:08:52.263Z,97041.48
2019-01-16T07:11:57.410Z,97037.05
2019-01-16T07:14:56.686Z,97042.84
2019-01-16T07:17:45.062Z,97047.35
2019-01-16T07:20:29.107Z,97044.94
2019-01-16T07:23:11.334Z,97040.83
2019-01-16T07:26:06.732Z,97042.66
2019-01-16T07:28:59.311Z,97032.04
2019-01-16T07:31:51.348Z,97027.39
2019-01-16T07:34:53.585Z,97031.13
2019-01-16T07:37:50.008Z,97025.44
2019-01-16T07:40:39.895Z,97025.57
2019-01-16T07:44:00.262Z,97030.81
2019-01-16T07:46:48.817Z,97026.78
2019-01-16T07:49:42.199Z,97029.45
2019-01-16T07:52:24.234Z,97030.27
2019-01-16T07:55:08.576Z,97035.85
2019-01-16T07:58:16.563Z,97035.64
2019-01-16T08:01:21.188Z,97033.73
2019-01-16T08:04:17.317Z,97033.39
2019-01-16T08:07:06.071Z,97026.22
2019-01-16T08:09:56.367Z,97009.48
2019-01-16T08:12:44.586Z,97017.61
2019-01-16T08:15:48.965Z,97015.94
2019-01-16T08:18:32.816Z,97019.33
2019-01-16T08:21:32.074Z,97029.64
2019-01-16T08:24:20.295Z,97028.31
2019-01-16T08:27:02.621Z,97035.56
2019-01-16T08:29:50.394Z,97031.47
2019-01-16T08:32:45.799Z,97040.25
2019-01-16T08:35:35.908Z,97050.34
2019-01-16T08:38:18.465Z,97044.23
2019-01-16T08:41:11.913Z,97053.56
2019-01-16T08:44:16.849Z,97050.73
2019-01-16T08:47:09.423Z,97051.94
2019-01-16T08:49:53.274Z,97060.52
2019-01-16T08:52:42.269Z,97054.90
2019-01-16T08:55:35.156Z,97057.77
2019-01-16T08:58:27.823Z,97052.90
2019-01-16T09:01:16.062Z,97056.48
2019-01-16T09:04:04.443Z,97044.28
2019-01-16T09:06:45.912Z,97041.48
2019-01-16T09:09:35.497Z,97042.32
2019-01-16T09:12:34.025Z,97032.55
2019-01-16T09:15:43.186Z,97024.74
2019-01-16T09:18:39.503Z,97020.65
2019-01-16T09:21:22.443Z,97021.68
2019-01-16T09:24:10.873Z,97017.28
2019-01-16T09:27:00.856Z,97015.17
2019-01-16T09:29:59.852Z,97018.33
2019-01-16T09:32:43.446Z,97024.24
2019-01-16T09:35:22.018Z,97015.53
2019-01-16T09:38:18.540Z,97021.23
2019-01-16T09:40:57.983Z,97028.73
2019-01-16T09:43:57.168Z,97020.16
2019-01-16T09:46:47.886Z,97025.63
2019-01-16T09:49:37.881Z,97019.80
2019-01-16T09:52:27.855Z,97014.41
2019-01-16T09:55:32.541Z,97015.80
2019-01-16T09:58:27.406Z,97012.22
2019-01-16T10:01:16.037Z,97010.05
2019-01-16T10:04:24.109Z,97005.41
2019-01-16T10:07:12.697Z,97001.92
2019-01-16T10:10:05.858Z,97005.09
2019-01-16T10:12:49.371Z,97003.86
2019-01-16T10:15:38.860Z,96997.98
2019-01-16T10:18:37.985Z,96995.76
2019-01-16T10:21:18.727Z,96993.57
2019-01-16T10:24:08.003Z,96986.20
2019-01-16T10:27:07.714Z,96978.34
2019-01-16T10:30:12.439Z,96975.09
2019-01-16T10:33:09.187Z,96966.05
2019-01-16T10:36:07.792Z,96956.07
2019-01-16T10:38:56.224Z,96954.45
2019-01-16T10:41:58.582Z,96945.03
2019-01-16T10:44:48.574Z,96935.44
2019-01-16T10:47:29.956Z,96933.31
2019-01-16T10:50:18.624Z,96933.56
2019-01-16T10:53:06.883Z,96920.99
2019-01-16T10:55:55.694Z,96915.94
2019-01-16T10:58:41.449Z,96916.52
2019-01-16T11:01:29.556Z,96912.26
2019-01-16T11:04:19.669Z,96908.76
2019-01-16T11:07:08.883Z,96887.81
2019-01-16T11:10:03.916Z,96883.95
2019-01-16T11:12:59.599Z,96877.38
2019-01-16T11:15:46.584Z,96867.23
2019-01-16T11:18:31.935Z,96869.56
2019-01-16T11:21:21.226Z,96868.38
2019-01-16T11:24:13.775Z,96860.47
2019-01-16T11:27:02.279Z,96860.93
2019-01-16T11:30:02.811Z,96853.72
2019-01-16T11:33:04.004Z,96854.66
2019-01-16T11:36:02.851Z,96852.27
2019-01-16T11:39:04.437Z,96845.72
2019-01-16T11:41:54.295Z,96852.30
2019-01-16T11:44:43.532Z,96841.83
2019-01-16T11:47:26.391Z,96826.94
2019-01-16T11:50:25.474Z,96819.62
2019-01-16T11:53:13.676Z,96816.09
2019-01-16T11:56:02.340Z,96808.07
2019-01-16T11:58:51.938Z,96797.15
2019-01-16T12:01:56.620Z,96793.42
2019-01-16T12:04:52.199Z,96778.83
2019-01-16T12:07:45.783Z,96775.59
2019-01-16T12:10:33.947Z,96773.82
2019-01-16T12:13:23.864Z,96775.89
2019-01-16T12:16:06.806Z,96771.47
2019-01-16T12:18:55.948Z,96772.69
2019-01-16T12:21:44.605Z,96763.16
2019-01-16T12:24:23.343Z,96760.77
2019-01-16T12:27:11.651Z,96751.20
2019-01-16T12:30:07.354Z,96745.80
2019-01-16T12:32:57.291Z,96738.16
2019-01-16T12:35:53.526Z,96737.31
2019-01-16T12:38:43.409Z,96727.09
2019-01-16T12:41:45.675Z,96718.91
2019-01-16T12:44:34.586Z,96716.66
2019-01-16T12:47:15.763Z,96713.77
2019-01-16T12:50:17.065Z,96705.20
2019-01-16T12:53:09.740Z,96700.17
2019-01-16T12:56:01.591Z,96698.41
2019-01-16T12:59:03.218Z,96696.92
2019-01-16T13:02:11.355Z,96694.22
2019-01-16T13:04:59.890Z,96684.53
2019-01-16T13:07:44.935Z,96682.76
2019-01-16T13:10:34.838Z,96676.95
2019-01-16T13:13:24.925Z,96677.54
2019-01-16T13:16:26.565Z,96668.61
2019-01-16T13:19:49.361Z,96663.83
2019-01-16T13:22:35.534Z,96658.27
2019-01-16T13:25:24.121Z,96650.81
2019-01-16T13:28:28.215Z,96659.23
2019-01-16T13:31:22.695Z,96655.23
2019-01-16T13:34:10.669Z,96645.61
2019-01-16T13:36:55.029Z,96641.03
2019-01-16T13:39:36.312Z,96639.92
2019-01-16T13:42:32.175Z,96638.01
2019-01-16T13:45:20.825Z,96635.89
2019-01-16T13:48:01.752Z,96628.34
2019-01-16T13:50:42.936Z,96626.59
2019-01-16T13:53:33.919Z,96622.67
2019-01-16T13:56:33.101Z,96622.73
2019-01-16T14:03:23.124Z,96617.80
2019-01-16T14:06:47.075Z,96612.16
2019-01-16T14:09:43.285Z,96614.92
2019-01-16T14:12:42.124Z,96613.67
2019-01-16T14:15:47.781Z,96608.02
2019-01-16T14:18:46.254Z,96611.91
2019-01-16T14:21:57.009Z,96606.38
2019-01-16T14:24:58.645Z,96617.00
2019-01-16T14:27:54.785Z,96609.64
2019-01-16T14:30:59.349Z,96609.26
2019-01-16T14:33:49.694Z,96599.86
2019-01-16T14:36:57.865Z,96608.20
2019-01-16T14:39:52.060Z,96596.14
2019-01-16T14:42:29.066Z,96590.94
2019-01-16T14:45:24.028Z,96590.95
2019-01-16T14:48:01.585Z,96594.63
2019-01-16T14:51:09.126Z,96600.22
2019-01-16T14:53:54.972Z,96592.45
2019-01-16T14:56:43.640Z,96589.66
2019-01-16T14:59:46.070Z,96582.73
2019-01-16T15:02:38.395Z,96583.39
2019-01-16T15:05:32.421Z,96580.39
2019-01-16T15:08:20.503Z,96587.63
2019-01-16T15:11:08.289Z,96580.44
2019-01-16T15:14:13.578Z,96571.08
2019-01-16T15:17:05.915Z,96573.64
2019-01-16T15:19:54.550Z,96568.09
2019-01-16T15:22:50.946Z,96568.84
2019-01-16T15:25:37.592Z,96566.47
2019-01-16T15:28:19.484Z,96560.59
2019-01-16T15:31:12.809Z,96556.91
2019-01-16T15:34:11.428Z,96557.20
2019-01-16T15:37:00.986Z,96557.23
2019-01-16T15:40:10.240Z,96553.14
2019-01-16T15:42:58.878Z,96549.34
2019-01-16T15:45:47.123Z,96548.45
2019-01-16T15:48:49.240Z,96552.55
2019-01-16T15:51:37.807Z,96551.28
2019-01-16T15:54:38.403Z,96545.38
2019-01-16T15:57:26.834Z,96545.17
2019-01-16T16:00:15.177Z,96543.01
2019-01-16T16:03:15.381Z,96534.41
2019-01-16T16:06:17.824Z,96535.48
2019-01-16T16:09:11.444Z,96532.66
2019-01-16T16:12:30.435Z,96532.61
2019-01-16T16:15:35.138Z,96530.27
2019-01-16T16:18:39.864Z,96525.87
2019-01-16T16:21:27.683Z,96520.97
2019-01-16T16:24:33.878Z,96526.81
2019-01-16T16:27:32.898Z,96522.05
2019-01-16T16:30:32.720Z,96519.31
2019-01-16T16:33:26.097Z,96523.23
2019-01-16T16:36:21.765Z,96523.52
2019-01-16T16:39:21.841Z,96520.34
2019-01-16T16:42:05.935Z,96521.72
2019-01-16T16:45:01.410Z,96517.83
2019-01-16T16:48:03.427Z,96515.03
2019-01-16T16:50:51.587Z,96516.30
2019-01-16T16:53:40.861Z,96512.25
2019-01-16T16:56:36.550Z,96507.48
2019-01-16T16:59:25.144Z,96511.09
2019-01-16T17:02:30.149Z,96507.12
2019-01-16T17:05:18.304Z,96512.78
2019-01-16T17:08:02.890Z,96513.58
2019-01-16T17:10:53.637Z,96511.59
2019-01-16T17:13:49.356Z,96507.28
2019-01-16T17:16:34.836Z,96506.02
2019-01-16T17:19:33.739Z,96497.78
2019-01-16T17:22:35.613Z,96502.27
2019-01-16T17:25:35.113Z,96497.80
2019-01-16T17:28:25.480Z,96499.74
2019-01-16T17:31:14.136Z,96499.39
2019-01-16T17:34:18.868Z,96498.74
2019-01-16T17:37:07.761Z,96501.61
2019-01-16T17:40:06.677Z,96492.92
2019-01-16T17:42:55.206Z,96498.61
2019-01-16T17:45:43.544Z,96498.99
2019-01-16T17:48:33.142Z,96490.80
2019-01-16T17:51:26.488Z,96491.89
2019-01-16T17:54:15.536Z,96483.62
2019-01-16T17:57:05.555Z,96491.81
2019-01-16T18:00:03.465Z,96492.68
2019-01-16T18:02:56.255Z,96493.15
2019-01-16T18:05:57.080Z,96498.14
2019-01-16T18:09:14.224Z,96498.33
2019-01-16T18:12:03.803Z,96494.59
2019-01-16T18:14:41.245Z,96490.05
2019-01-16T18:17:36.599Z,96489.39
2019-01-16T18:20:29.639Z,96493.28
2019-01-16T18:23:18.063Z,96492.63
2019-01-16T18:26:10.382Z,96498.12
2019-01-16T18:28:48.260Z,96496.36
2019-01-16T18:31:37.908Z,96497.60
2019-01-16T18:34:33.755Z,96495.09
2019-01-16T18:37:36.021Z,96505.59
2019-01-16T18:40:45.557Z,96506.58
2019-01-16T18:43:39.898Z,96505.98
2019-01-16T18:46:32.596Z,96500.74
2019-01-16T18:49:22.187Z,96503.72
2019-01-16T18:52:10.815Z,96502.53
2019-01-16T18:54:59.725Z,96507.52
2019-01-16T18:57:51.133Z,96504.11
2019-01-16T19:00:51.022Z,96501.02
2019-01-16T19:03:40.842Z,96503.63
2019-01-16T19:06:28.827Z,96495.41
2019-01-16T19:09:17.805Z,96494.47
2019-01-16T19:12:13.419Z,96496.78
2019-01-16T19:15:12.232Z,96493.79
2019-01-16T19:18:18.419Z,96486.67
2019-01-16T19:21:08.156Z,96481.89
2019-01-16T19:24:03.291Z,96480.06
2019-01-16T19:26:45.055Z,96482.03
2019-01-16T19:29:50.762Z,96477.25
2019-01-16T19:32:52.629Z,96474.81
2019-01-16T19:35:53.455Z,96469.63
2019-01-16T19:39:00.906Z,96463.80
2019-01-16T19:41:49.449Z,96460.43
2019-01-16T19:44:38.523Z,96461.42
2019-01-16T19:48:02.151Z,96460.62
2019-01-16T19:50:57.098Z,96459.19
2019-01-16T19:53:57.792Z,96463.27
2019-01-16T19:57:04.249Z,96459.88
2019-01-16T20:00:03.187Z,96464.66
2019-01-16T20:02:51.113Z,96471.59
2019-01-16T20:05:43.995Z,96473.66
2019-01-16T20:09:03.465Z,96466.86
2019-01-16T20:12:09.429Z,96472.65
2019-01-16T20:14:52.339Z,96461.61
2019-01-16T20:17:52.674Z,96463.61
2019-01-16T20:20:48.414Z,96458.82
2019-01-16T20:23:49.432Z,96461.45
2019-01-16T20:26:39.297Z,96471.88
2019-01-16T20:29:44.248Z,96469.54
2019-01-16T20:32:23.499Z,96471.91
2019-01-16T20:35:26.175Z,96473.53
2019-01-16T20:38:07.998Z,96469.12
2019-01-16T20:40:58.604Z,96458.68
2019-01-16T20:43:48.544Z,96461.59
2019-01-16T20:46:34.987Z,96474.14
2019-01-16T20:49:21.690Z,96471.65
2019-01-16T20:52:07.792Z,96470.62
2019-01-16T20:55:01.012Z,96463.59
2019-01-16T20:58:08.295Z,96462.61
2019-01-16T21:00:54.101Z,96455.41
2019-01-16T21:03:49.886Z,96467.91
2019-01-16T21:07:07.157Z,96462.29
2019-01-16T21:10:15.062Z,96452.61
2019-01-16T21:13:03.504Z,96458.06
2019-01-16T21:15:56.825Z,96458.02
2019-01-16T21:18:45.816Z,96448.59
2019-01-16T21:21:34.078Z,96450.73
2019-01-16T21:24:14.204Z,96452.11
2019-01-16T21:27:08.479Z,96454.20
2019-01-16T21:30:13.972Z,96456.34
2019-01-16T21:33:10.332Z,96448.16
2019-01-16T21:35:58.878Z,96452.95
2019-01-16T21:38:54.956Z,96437.33
2019-01-16T21:42:24.831Z,96441.80
2019-01-16T21:45:08.548Z,96437.28
2019-01-16T21:48:03.100Z,96444.96
2019-01-16T21:50:56.758Z,96439.66
2019-01-16T21:54:02.337Z,96437.41
2019-01-16T21:56:57.879Z,96440.07
2019-01-16T21:59:41.095Z,96429.62
2019-01-16T22:02:42.936Z,96425.18
2019-01-16T22:05:25.262Z,96421.39
2019-01-16T22:08:24.034Z,96420.88
2019-01-16T22:11:34.723Z,96421.63
2019-01-16T22:14:27.631Z,96426.47
2019-01-16T22:17:17.619Z,96428.48
2019-01-16T22:20:11.717Z,96424.06
2019-01-16T22:23:00.990Z,96421.78
2019-01-16T22:25:45.729Z,96416.38
2019-01-16T22:28:30.407Z,96411.04
2019-01-16T22:31:22.666Z,96412.99
2019-01-16T22:34:13.760Z,96411.87
2019-01-16T22:37:00.566Z,96410.87
2019-01-16T22:39:53.427Z,96411.58
2019-01-16T22:42:41.560Z,96412.22
2019-01-16T22:45:37.075Z,96406.91
2019-01-16T22:48:39.068Z,96406.29
2019-01-16T22:51:37.635Z,96399.31
2019-01-16T22:54:30.441Z,96396.31
2019-01-16T22:57:19.771Z,96395.23
2019-01-16T23:00:01.445Z,96394.25
2019-01-16T23:02:47.447Z,96387.69
2019-01-16T23:05:52.660Z,96381.58
2019-01-16T23:08:42.814Z,96385.70
2019-01-16T23:11:38.392Z,96380.19
2019-01-16T23:14:20.520Z,96377.86
2019-01-16T23:17:09.536Z,96385.73
2019-01-16T23:20:05.167Z,96379.99
2019-01-16T23:22:47.608Z,96385.43
2019-01-16T23:25:37.937Z,96381.70
2019-01-16T23:29:03.684Z,96377.44
2019-01-16T23:32:09.541Z,96380.70
2019-01-16T23:35:08.336Z,96381.37
2019-01-16T23:38:17.360Z,96376.67
2019-01-16T23:41:22.202Z,96381.27
2019-01-16T23:44:21.333Z,96385.41
2019-01-16T23:47:08.715Z,96385.37
2019-01-16T23:49:52.148Z,96387.98
2019-01-16T23:52:39.763Z,96384.89
2019-01-16T23:55:35.913Z,96386.66
2019-01-16T23:58:24.449Z,96378.88
